Time;durP1;ratioP1;P1;durP2;ratioP2;P2;SDS_P1;SDS_P2;PMS_P1;PMS_P2;Temp;Humidity;BMP_temperature;BMP_pressure;BME280_temperature;BME280_humidity;BME280_pressure;Samples;Min_cycle;Max_cycle;Signal;HPM_P1;HPM_P2
2023/08/05 00:01:42;;;;;;;4.40;2.80;;;14.80;99.90;;;;;;6282315;22;20058;-67
2023/08/05 00:04:07;;;;;;;6.18;3.22;;;14.80;99.90;;;;;;6279163;22;20032;-66
2023/08/05 00:06:33;;;;;;;10.10;3.17;;;14.80;99.90;;;;;;6281461;22;20024;-68
2023/08/05 00:08:59;;;;;;;6.57;2.75;;;14.80;99.90;;;;;;6280887;22;20512;-66
2023/08/05 00:11:25;;;;;;;8.43;3.65;;;14.80;99.90;;;;;;6280330;22;20061;-67
2023/08/05 00:13:50;;;;;;;3.83;2.75;;;14.80;99.90;;;;;;6228860;22;20383;-67
2023/08/05 00:16:16;;;;;;;10.63;3.15;;;14.90;99.90;;;;;;6252943;22;20043;-66
2023/08/05 00:18:42;;;;;;;6.30;3.03;;;14.90;99.90;;;;;;6281317;22;20548;-66
2023/08/05 00:21:08;;;;;;;5.68;3.05;;;14.90;99.90;;;;;;6280156;22;20038;-67
2023/08/05 00:23:33;;;;;;;5.78;3.38;;;14.90;99.90;;;;;;6254362;22;20019;-66
2023/08/05 00:25:59;;;;;;;6.53;2.92;;;14.90;99.90;;;;;;6279674;22;20099;-67
2023/08/05 00:28:25;;;;;;;5.60;3.22;;;14.90;99.90;;;;;;6253505;22;20024;-67
2023/08/05 00:30:50;;;;;;;6.43;3.38;;;14.90;99.90;;;;;;6253911;22;20085;-67
2023/08/05 00:33:16;;;;;;;4.82;3.30;;;14.90;99.90;;;;;;6252769;22;20023;-67
2023/08/05 00:35:42;;;;;;;3.55;3.25;;;14.90;99.90;;;;;;6281490;22;20024;-66
2023/08/05 00:38:07;;;;;;;7.38;3.20;;;15.00;99.90;;;;;;6252516;22;20031;-67
2023/08/05 00:40:33;;;;;;;7.10;3.33;;;15.00;99.90;;;;;;6281269;22;20047;-68
2023/08/05 00:42:59;;;;;;;9.43;3.40;;;15.00;99.90;;;;;;6227445;22;20030;-66
2023/08/05 00:45:25;;;;;;;5.40;2.88;;;15.00;99.90;;;;;;6228299;22;20023;-67
2023/08/05 00:47:52;;;;;;;9.65;3.15;;;15.00;99.90;;;;;;6281055;22;20103;-66
2023/08/05 00:50:18;;;;;;;7.13;3.58;;;15.00;99.90;;;;;;6280029;22;20024;-67
2023/08/05 00:52:44;;;;;;;4.45;3.10;;;15.00;99.90;;;;;;6281161;22;20024;-66
2023/08/05 00:55:10;;;;;;;6.22;3.90;;;15.00;99.90;;;;;;6252226;22;20022;-66
2023/08/05 00:57:36;;;;;;;3.85;2.72;;;15.00;99.90;;;;;;6281420;22;20140;-66
2023/08/05 01:00:02;;;;;;;5.55;3.28;;;14.90;99.90;;;;;;6280101;22;20027;-67
2023/08/05 01:02:28;;;;;;;5.28;2.78;;;14.80;99.90;;;;;;6281258;22;20047;-67
2023/08/05 01:04:54;;;;;;;5.18;2.72;;;14.80;99.90;;;;;;6228391;22;20027;-67
2023/08/05 01:07:22;;;;;;;5.55;2.83;;;14.80;99.90;;;;;;6252751;22;20054;-66
2023/08/05 01:09:48;;;;;;;6.22;3.10;;;14.80;99.90;;;;;;6281125;22;20528;-67
2023/08/05 01:12:14;;;;;;;4.53;3.03;;;14.80;99.90;;;;;;6227380;22;20051;-67
2023/08/05 01:14:40;;;;;;;5.72;2.70;;;14.70;99.90;;;;;;6281640;22;20103;-67
2023/08/05 01:17:07;;;;;;;4.07;2.60;;;14.70;99.90;;;;;;6279817;22;20066;-66
2023/08/05 01:19:34;;;;;;;6.25;2.90;;;14.70;99.90;;;;;;6281081;22;20024;-66
2023/08/05 01:22:08;;;;;;;8.25;3.50;;;14.60;99.90;;;;;;6228239;22;20016;-66
2023/08/05 01:24:55;;;;;;;5.65;3.22;;;14.50;99.90;;;;;;6279494;22;20030;-67
2023/08/05 01:27:22;;;;;;;4.15;2.60;;;14.50;99.90;;;;;;6253937;22;20019;-67
2023/08/05 01:29:48;;;;;;;6.95;2.97;;;14.50;99.90;;;;;;6279265;22;20039;-66
2023/08/05 01:32:15;;;;;;;5.05;2.42;;;14.50;99.90;;;;;;6281197;22;20480;-67
2023/08/05 01:34:41;;;;;;;5.47;3.75;;;14.50;99.90;;;;;;6252996;22;20024;-67
2023/08/05 01:37:07;;;;;;;8.02;3.00;;;14.40;99.90;;;;;;6279907;22;20079;-66
2023/08/05 01:39:33;;;;;;;5.47;3.08;;;14.30;99.90;;;;;;6280511;22;20026;-67
2023/08/05 01:41:59;;;;;;;6.22;3.22;;;14.40;99.90;;;;;;6252469;22;20024;-67
2023/08/05 01:44:24;;;;;;;5.72;3.10;;;14.40;99.90;;;;;;6281423;22;20077;-66
2023/08/05 01:46:50;;;;;;;7.35;3.15;;;14.40;99.90;;;;;;6279751;22;20024;-66
2023/08/05 01:49:16;;;;;;;8.93;3.63;;;14.40;99.90;;;;;;6281312;22;20340;-67
2023/08/05 01:51:41;;;;;;;7.28;3.60;;;14.40;99.90;;;;;;6252961;22;20034;-66
2023/08/05 01:54:07;;;;;;;9.80;3.90;;;14.30;99.90;;;;;;6227606;22;20055;-66
2023/08/05 01:56:33;;;;;;;8.32;4.28;;;14.30;99.90;;;;;;6253208;22;20078;-67
2023/08/05 01:58:59;;;;;;;9.48;4.18;;;14.30;99.90;;;;;;6279490;22;20020;-67
2023/08/05 02:01:46;;;;;;;8.38;3.58;;;14.40;99.90;;;;;;6253780;22;20019;-67
2023/08/05 02:04:12;;;;;;;6.47;3.25;;;14.30;99.90;;;;;;6226843;22;20030;-66
2023/08/05 02:06:39;;;;;;;5.68;3.85;;;14.20;99.90;;;;;;6253295;22;20373;-67
2023/08/05 02:09:05;;;;;;;7.07;3.60;;;14.10;99.90;;;;;;6253051;22;20027;-66
2023/08/05 02:11:31;;;;;;;9.15;3.90;;;14.10;99.90;;;;;;6252180;22;20035;-65
2023/08/05 02:13:57;;;;;;;7.57;3.55;;;14.10;99.90;;;;;;6280781;22;20493;-66
2023/08/05 02:16:23;;;;;;;7.97;3.63;;;14.00;99.90;;;;;;6279280;22;20027;-65
2023/08/05 02:18:52;;;;;;;5.93;3.90;;;13.90;99.90;;;;;;6253489;22;20024;-65
2023/08/05 02:21:18;;;;;;;5.97;3.72;;;13.90;99.90;;;;;;6279345;22;20614;-65
2023/08/05 02:23:44;;;;;;;5.88;3.78;;;13.90;99.90;;;;;;6253396;22;20022;-65
2023/08/05 02:26:10;;;;;;;7.60;3.42;;;13.90;99.90;;;;;;6280010;22;20024;-65
2023/08/05 02:28:36;;;;;;;6.13;4.13;;;13.90;99.90;;;;;;6252350;22;20019;-65
2023/08/05 02:31:01;;;;;;;7.45;3.55;;;14.00;99.90;;;;;;6280444;22;20027;-65
2023/08/05 02:33:27;;;;;;;5.88;3.45;;;14.00;99.90;;;;;;6279129;22;20054;-65
2023/08/05 02:36:00;;;;;;;4.65;3.53;;;14.00;99.90;;;;;;6253052;22;20028;-66
2023/08/05 02:38:25;;;;;;;;;;;13.90;99.90;;;;;;6279920;22;20027;-65
2023/08/05 02:40:52;;;;;;;5.47;3.90;;;13.90;99.90;;;;;;6253647;22;19973;-65
2023/08/05 02:43:18;;;;;;;6.95;3.88;;;13.80;99.90;;;;;;6254912;22;20464;-65
2023/08/05 02:45:44;;;;;;;5.28;3.10;;;13.70;99.90;;;;;;6254164;22;20027;-65
2023/08/05 02:48:10;;;;;;;8.35;3.53;;;13.60;99.90;;;;;;6229796;22;20027;-65
2023/08/05 02:50:36;;;;;;;6.75;3.00;;;13.60;99.90;;;;;;6253512;22;20030;-65
2023/08/05 02:53:01;;;;;;;5.57;3.28;;;13.60;99.90;;;;;;6255191;22;20043;-67
2023/08/05 02:55:28;;;;;;;5.70;3.55;;;13.60;99.90;;;;;;6253212;22;20028;-65
2023/08/05 02:57:53;;;;;;;6.65;3.50;;;13.70;99.90;;;;;;6229426;22;20032;-66
2023/08/05 03:00:19;;;;;;;9.82;3.92;;;13.70;99.90;;;;;;6281270;22;20019;-65
2023/08/05 03:02:46;;;;;;;7.38;4.07;;;13.50;99.90;;;;;;6281401;22;20076;-65
2023/08/05 03:05:11;;;;;;;5.68;3.15;;;13.30;99.90;;;;;;6281773;22;20024;-65
2023/08/05 03:07:37;;;;;;;5.53;3.95;;;13.40;99.90;;;;;;6280635;22;20020;-65
2023/08/05 03:10:03;;;;;;;7.60;4.05;;;13.50;99.90;;;;;;6282257;22;20027;-66
2023/08/05 03:12:29;;;;;;;5.47;3.92;;;13.50;99.90;;;;;;6280494;22;20028;-65
2023/08/05 03:14:54;;;;;;;5.88;3.95;;;13.50;99.90;;;;;;6255091;22;20038;-65
2023/08/05 03:17:20;;;;;;;5.93;3.83;;;13.50;99.90;;;;;;6228688;22;20034;-65
2023/08/05 03:19:50;;;;;;;7.18;3.65;;;13.50;99.90;;;;;;6254056;22;20020;-65
2023/08/05 03:22:16;;;;;;;5.22;4.05;;;13.50;99.90;;;;;;6254707;22;20027;-65
2023/08/05 03:24:42;;;;;;;4.53;3.50;;;13.40;99.90;;;;;;6253281;22;20346;-65
2023/08/05 03:27:07;;;;;;;8.35;3.78;;;13.40;99.90;;;;;;6281981;22;20027;-65
2023/08/05 03:29:33;;;;;;;7.03;3.55;;;13.40;99.90;;;;;;6280249;22;20020;-65
2023/08/05 03:31:59;;;;;;;12.05;4.75;;;13.30;99.90;;;;;;6282174;22;20042;-65
2023/08/05 03:34:24;;;;;;;7.65;3.88;;;13.30;99.90;;;;;;6280490;22;20366;-65
2023/08/05 03:36:52;;;;;;;6.53;4.10;;;13.40;99.90;;;;;;6253812;22;20024;-65
2023/08/05 03:39:19;;;;;;;6.95;3.60;;;13.40;99.90;;;;;;6254360;22;20027;-65
2023/08/05 03:41:45;;;;;;;7.90;4.03;;;13.40;99.90;;;;;;6280258;22;20072;-66
2023/08/05 03:44:11;;;;;;;6.88;3.88;;;13.40;99.90;;;;;;6229414;22;20034;-65
2023/08/05 03:46:37;;;;;;;7.85;3.85;;;13.40;99.90;;;;;;6227596;22;20020;-66
2023/08/05 03:49:06;;;;;;;7.75;3.75;;;13.40;99.90;;;;;;6254566;22;20031;-66
2023/08/05 03:51:32;;;;;;;5.40;3.17;;;13.40;99.90;;;;;;6280581;22;20039;-65
2023/08/05 03:53:58;;;;;;;5.32;4.03;;;13.40;99.90;;;;;;6280531;22;20023;-65
2023/08/05 03:56:26;;;;;;;8.25;4.25;;;13.30;99.90;;;;;;6280874;22;20483;-65
2023/08/05 03:58:55;;;;;;;4.63;3.42;;;13.20;99.90;;;;;;6280077;22;20054;-64
2023/08/05 04:01:21;;;;;;;7.60;4.10;;;13.40;99.90;;;;;;6254473;22;20020;-65
2023/08/05 04:03:49;;;;;;;6.60;3.92;;;13.40;99.90;;;;;;6252180;22;20055;-65
2023/08/05 04:06:15;;;;;;;5.35;4.20;;;13.50;99.90;;;;;;6254622;22;20487;-65
2023/08/05 04:08:41;;;;;;;4.55;4.03;;;13.50;99.90;;;;;;6280098;22;20054;-66
2023/08/05 04:11:08;;;;;;;8.68;4.70;;;13.60;99.90;;;;;;6252853;22;20029;-64
2023/08/05 04:13:37;;;;;;;4.32;3.75;;;13.60;99.90;;;;;;6281343;22;20034;-66
2023/08/05 04:16:04;;;;;;;9.48;4.00;;;13.60;99.90;;;;;;6279933;22;20023;-65
2023/08/05 04:18:37;;;;;;;8.30;3.90;;;13.40;99.90;;;;;;6253802;22;20059;-65
2023/08/05 04:21:04;;;;;;;7.38;4.38;;;13.40;99.90;;;;;;6252527;22;20460;-66
2023/08/05 04:23:32;;;;;;;7.38;3.63;;;13.50;99.90;;;;;;6281248;22;20572;-65
2023/08/05 04:26:03;;;;;;;6.25;4.55;;;13.50;99.90;;;;;;6252897;22;20020;-65
2023/08/05 04:28:29;;;;;;;9.77;4.80;;;13.50;99.90;;;;;;6280305;22;20023;-65
2023/08/05 04:30:55;;;;;;;7.05;4.68;;;13.50;99.90;;;;;;6281142;22;20020;-66
2023/08/05 04:33:21;;;;;;;8.27;4.65;;;13.50;99.90;;;;;;6279594;22;20111;-65
2023/08/05 04:35:48;;;;;;;9.43;4.93;;;13.40;99.90;;;;;;6254232;22;20235;-65
2023/08/05 04:38:15;;;;;;;9.98;4.50;;;13.40;99.90;;;;;;6279246;22;20034;-65
2023/08/05 04:40:41;;;;;;;10.43;5.47;;;13.40;99.90;;;;;;6253809;22;20027;-64
2023/08/05 04:43:06;;;;;;;7.45;5.60;;;13.50;99.90;;;;;;6280450;22;20024;-65
2023/08/05 04:45:32;;;;;;;8.95;5.28;;;13.50;99.90;;;;;;6252777;22;20027;-65
2023/08/05 04:47:58;;;;;;;7.18;5.50;;;13.60;99.90;;;;;;6253180;22;20028;-65
2023/08/05 04:50:24;;;;;;;9.23;5.57;;;13.60;99.90;;;;;;6279612;22;20054;-65
2023/08/05 04:52:52;;;;;;;10.35;6.13;;;13.60;99.90;;;;;;6253785;22;20034;-64
2023/08/05 04:55:18;;;;;;;9.70;5.13;;;13.60;99.90;;;;;;6279411;22;20024;-66
2023/08/05 04:57:45;;;;;;;11.55;7.07;;;13.70;99.90;;;;;;6228155;22;20034;-65
2023/08/05 05:00:11;;;;;;;10.55;6.53;;;13.80;99.90;;;;;;6227782;22;20433;-65
2023/08/05 05:02:38;;;;;;;10.65;6.20;;;13.70;99.90;;;;;;6280107;22;20024;-65
2023/08/05 05:05:04;;;;;;;9.15;6.10;;;13.90;99.90;;;;;;6280535;22;20400;-65
2023/08/05 05:07:30;;;;;;;11.20;6.25;;;14.00;99.90;;;;;;6252246;22;20475;-64
2023/08/05 05:09:56;;;;;;;8.20;6.38;;;14.00;99.90;;;;;;6253810;22;20031;-65
2023/08/05 05:12:22;;;;;;;12.52;6.90;;;14.10;99.90;;;;;;6252058;22;20059;-65
2023/08/05 05:14:48;;;;;;;8.95;6.43;;;14.20;99.90;;;;;;6281281;22;20038;-65
2023/08/05 05:17:15;;;;;;;8.88;6.05;;;14.30;99.90;;;;;;6252297;22;20094;-66
2023/08/05 05:19:41;;;;;;;8.48;5.65;;;14.50;99.90;;;;;;6252968;22;20073;-64
2023/08/05 05:22:07;;;;;;;9.40;6.07;;;14.60;99.90;;;;;;6281025;22;20024;-65
2023/08/05 05:24:33;;;;;;;12.23;6.38;;;14.60;99.90;;;;;;6279874;22;20023;-67
2023/08/05 05:26:58;;;;;;;9.27;6.63;;;14.60;99.90;;;;;;6281021;22;20038;-65
2023/08/05 05:29:24;;;;;;;8.38;6.55;;;14.60;99.90;;;;;;6251878;22;20021;-66
2023/08/05 05:31:50;;;;;;;11.10;6.43;;;14.70;99.90;;;;;;6280936;22;20050;-65
2023/08/05 05:34:16;;;;;;;13.73;6.20;;;14.70;99.90;;;;;;6279590;22;20027;-64
2023/08/05 05:36:41;;;;;;;10.23;5.68;;;14.80;99.90;;;;;;6280278;22;20020;-65
2023/08/05 05:39:08;;;;;;;8.57;6.38;;;14.70;99.90;;;;;;6280564;22;20372;-65
2023/08/05 05:41:34;;;;;;;13.38;6.03;;;14.80;99.90;;;;;;6279351;22;20023;-65
2023/08/05 05:44:02;;;;;;;13.30;5.75;;;15.10;99.90;;;;;;6228127;22;20027;-65
2023/08/05 05:46:28;;;;;;;12.15;6.18;;;15.10;99.90;;;;;;6251577;22;20028;-65
2023/08/05 05:48:54;;;;;;;10.10;5.55;;;15.20;99.90;;;;;;6281110;22;20029;-65
2023/08/05 05:51:20;;;;;;;9.05;5.68;;;15.20;99.90;;;;;;6279457;22;20087;-66
2023/08/05 05:53:45;;;;;;;7.90;5.80;;;15.20;99.90;;;;;;6253321;22;20023;-65
2023/08/05 05:56:11;;;;;;;11.23;6.65;;;15.20;99.90;;;;;;6252913;22;20024;-65
2023/08/05 05:58:37;;;;;;;9.65;4.93;;;15.10;99.90;;;;;;6226836;22;20024;-65
2023/08/05 06:01:03;;;;;;;8.25;5.40;;;15.10;99.90;;;;;;6280969;22;20594;-65
2023/08/05 06:03:30;;;;;;;14.32;5.40;;;15.10;99.90;;;;;;6226463;22;20034;-66
2023/08/05 06:05:58;;;;;;;8.18;5.30;;;15.20;99.90;;;;;;6281277;22;20447;-66
2023/08/05 06:08:24;;;;;;;10.20;5.80;;;15.20;99.90;;;;;;6279205;22;20019;-65
2023/08/05 06:10:51;;;;;;;9.40;5.43;;;15.20;99.90;;;;;;6253062;22;20035;-66
2023/08/05 06:13:17;;;;;;;9.00;5.32;;;15.30;99.90;;;;;;6252628;22;20441;-65
2023/08/05 06:15:43;;;;;;;8.75;5.00;;;15.30;99.90;;;;;;6251309;22;20023;-65
2023/08/05 06:18:09;;;;;;;8.93;4.40;;;15.40;99.90;;;;;;6280104;22;20024;-65
2023/08/05 06:20:36;;;;;;;9.20;4.80;;;15.40;99.90;;;;;;6225274;22;20031;-65
2023/08/05 06:23:02;;;;;;;8.60;4.20;;;15.50;99.90;;;;;;6253439;22;20023;-66
2023/08/05 06:25:28;;;;;;;6.03;3.90;;;15.50;99.90;;;;;;6278798;22;20779;-66
2023/08/05 06:27:54;;;;;;;8.25;3.85;;;15.60;99.90;;;;;;6280221;22;20026;-67
2023/08/05 06:30:20;;;;;;;8.43;3.72;;;15.60;99.90;;;;;;6253040;22;20027;-65
2023/08/05 06:32:45;;;;;;;6.97;4.30;;;15.70;99.90;;;;;;6279462;22;20024;-65
2023/08/05 06:35:11;;;;;;;5.85;3.65;;;15.70;99.90;;;;;;6253077;22;20031;-66
2023/08/05 06:37:37;;;;;;;5.50;3.72;;;15.80;99.90;;;;;;6251619;22;20024;-65
2023/08/05 06:40:03;;;;;;;5.20;3.25;;;15.90;99.90;;;;;;6253464;22;20130;-66
2023/08/05 06:42:29;;;;;;;7.40;3.60;;;16.00;99.90;;;;;;6278436;22;20467;-65
2023/08/05 06:44:55;;;;;;;4.78;3.13;;;16.00;99.90;;;;;;6252093;22;20024;-66
2023/08/05 06:47:20;;;;;;;11.00;3.90;;;16.00;99.90;;;;;;6226701;22;20015;-68
2023/08/05 06:49:46;;;;;;;8.90;4.18;;;16.00;99.90;;;;;;6278847;22;20039;-68
2023/08/05 06:52:12;;;;;;;10.23;4.43;;;16.00;99.90;;;;;;6252329;22;20121;-68
2023/08/05 06:54:38;;;;;;;7.70;4.20;;;16.00;99.90;;;;;;6278389;22;20023;-68
2023/08/05 06:57:04;;;;;;;11.15;4.25;;;16.00;99.90;;;;;;6252456;22;20035;-67
2023/08/05 06:59:30;;;;;;;9.23;3.90;;;16.00;99.90;;;;;;6251196;22;20019;-68
2023/08/05 07:01:56;;;;;;;7.90;4.20;;;16.00;99.90;;;;;;6252841;22;20020;-68
2023/08/05 07:04:22;;;;;;;6.00;3.95;;;16.00;99.90;;;;;;6251652;22;20113;-67
2023/08/05 07:06:47;;;;;;;8.68;4.00;;;16.10;99.90;;;;;;6279493;22;20035;-68
2023/08/05 07:09:13;;;;;;;5.65;3.90;;;16.00;99.90;;;;;;6227190;22;20028;-68
2023/08/05 07:11:39;;;;;;;5.95;3.72;;;16.10;99.90;;;;;;6251098;22;20016;-68
2023/08/05 07:14:05;;;;;;;5.25;3.38;;;16.10;99.90;;;;;;6253145;22;20034;-67
2023/08/05 07:16:30;;;;;;;13.40;4.20;;;16.10;99.90;;;;;;6278259;22;20027;-67
2023/08/05 07:18:56;;;;;;;5.57;3.13;;;16.10;99.90;;;;;;6252893;22;20349;-66
2023/08/05 07:21:22;;;;;;;7.90;3.22;;;16.10;99.90;;;;;;6251290;22;20030;-67
2023/08/05 07:23:50;;;;;;;9.45;3.58;;;16.20;99.90;;;;;;6226750;22;20567;-67
2023/08/05 07:26:16;;;;;;;5.03;3.03;;;16.30;99.90;;;;;;6251637;22;20195;-68
2023/08/05 07:28:42;;;;;;;8.73;2.67;;;16.40;99.90;;;;;;6279776;22;20508;-67
2023/08/05 07:31:10;;;;;;;4.18;3.08;;;16.50;99.90;;;;;;6252967;22;20029;-67
2023/08/05 07:33:36;;;;;;;9.15;3.33;;;16.50;99.90;;;;;;6279564;22;20023;-69
2023/08/05 07:36:12;;;;;;;5.72;3.55;;;16.60;99.90;;;;;;6281932;22;20027;-69
2023/08/05 07:38:44;;;;;;;5.47;2.80;;;16.70;99.90;;;;;;6253311;22;20032;-67
2023/08/05 07:41:11;;;;;;;5.00;3.13;;;16.80;99.90;;;;;;6253423;22;20020;-65
2023/08/05 07:43:38;;;;;;;7.22;3.17;;;16.90;99.90;;;;;;6228875;22;20020;-68
2023/08/05 07:46:05;;;;;;;3.95;2.95;;;16.90;99.90;;;;;;6280073;22;20609;-65
2023/08/05 07:48:35;;;;;;;4.22;2.70;;;17.00;99.90;;;;;;6254563;22;20087;-65
2023/08/05 07:51:02;;;;;;;3.88;2.28;;;17.10;99.90;;;;;;6252997;22;20020;-65
2023/08/05 07:53:30;;;;;;;7.18;2.63;;;17.20;99.90;;;;;;6282018;22;20512;-66
2023/08/05 07:55:58;;;;;;;8.25;2.40;;;17.20;99.90;;;;;;6253466;22;20020;-66
2023/08/05 07:58:25;;;;;;;5.68;2.47;;;17.20;99.90;;;;;;6227615;22;20028;-66
2023/08/05 08:00:56;;;;;;;6.47;2.65;;;17.20;99.90;;;;;;6281341;22;20023;-65
2023/08/05 08:03:26;;;;;;;5.35;2.42;;;17.30;99.90;;;;;;6279821;22;20023;-66
2023/08/05 08:05:52;;;;;;;5.85;2.15;;;17.30;99.90;;;;;;6281801;22;20031;-66
2023/08/05 08:08:18;;;;;;;3.17;2.55;;;17.30;99.90;;;;;;6280086;22;20031;-65
2023/08/05 08:10:43;;;;;;;8.40;2.22;;;17.30;99.90;;;;;;6281147;22;20019;-65
2023/08/05 08:13:09;;;;;;;4.05;2.53;;;17.30;99.90;;;;;;6280843;22;20442;-65
2023/08/05 08:15:35;;;;;;;5.30;2.33;;;17.40;99.90;;;;;;6280023;22;20089;-64
2023/08/05 08:18:01;;;;;;;3.95;2.35;;;17.40;99.90;;;;;;6281297;22;20024;-64
2023/08/05 08:20:26;;;;;;;5.85;2.30;;;17.40;99.90;;;;;;6227103;22;20023;-64
2023/08/05 08:22:52;;;;;;;5.03;2.67;;;17.40;99.90;;;;;;6281566;22;20024;-64
2023/08/05 08:25:18;;;;;;;4.75;2.75;;;17.40;99.90;;;;;;6252018;22;20035;-64
2023/08/05 08:27:43;;;;;;;5.70;2.50;;;17.50;99.90;;;;;;6281188;22;20015;-64
2023/08/05 08:30:11;;;;;;;5.40;2.97;;;17.50;99.90;;;;;;6253200;22;20072;-63
2023/08/05 08:32:37;;;;;;;5.47;2.45;;;17.60;99.90;;;;;;6252700;22;20026;-64
2023/08/05 08:35:03;;;;;;;3.80;2.00;;;17.50;99.90;;;;;;6253484;22;20027;-64
2023/08/05 08:37:28;;;;;;;5.93;2.38;;;17.60;99.90;;;;;;6226644;22;20035;-66
2023/08/05 08:39:54;;;;;;;6.50;2.90;;;17.60;99.90;;;;;;6253243;22;20094;-66
2023/08/05 08:42:23;;;;;;;7.03;2.80;;;17.70;99.90;;;;;;6279419;22;20094;-65
2023/08/05 08:44:49;;;;;;;5.07;2.10;;;17.80;99.90;;;;;;6253850;22;20484;-65
2023/08/05 08:47:17;;;;;;;5.45;2.33;;;17.80;99.90;;;;;;6227636;22;20031;-66
2023/08/05 08:49:46;;;;;;;5.25;2.05;;;17.90;99.90;;;;;;6252958;22;20047;-66
2023/08/05 08:52:17;;;;;;;4.43;2.13;;;18.00;99.90;;;;;;6281287;22;20047;-66
2023/08/05 08:54:44;;;;;;;2.90;1.98;;;18.00;99.90;;;;;;6251921;22;20338;-66
2023/08/05 08:57:13;;;;;;;6.57;2.47;;;18.10;99.90;;;;;;6227065;22;20601;-66
2023/08/05 08:59:39;;;;;;;3.92;2.22;;;18.10;99.90;;;;;;6251871;22;20108;-66
2023/08/05 09:02:12;;;;;;;5.22;2.00;;;18.20;99.90;;;;;;6253686;22;20027;-66
2023/08/05 09:04:42;;;;;;;1.88;1.42;;;18.30;99.90;;;;;;6253110;22;20036;-63
2023/08/05 09:07:09;;;;;;;3.50;2.03;;;18.40;99.90;;;;;;6279380;22;20061;-64
2023/08/05 09:09:35;;;;;;;4.38;1.90;;;18.50;99.90;;;;;;6280712;22;20072;-65
2023/08/05 09:12:02;;;;;;;4.85;1.90;;;18.50;99.90;;;;;;6279426;22;20035;-63
2023/08/05 09:14:28;;;;;;;2.75;1.65;;;18.50;99.90;;;;;;6280790;22;20085;-63
2023/08/05 09:16:59;;;;;;;4.68;2.00;;;18.70;99.90;;;;;;6226822;22;20019;-63
2023/08/05 09:19:29;;;;;;;5.15;2.13;;;18.70;99.90;;;;;;6253824;22;20016;-62
2023/08/05 09:21:55;;;;;;;3.08;1.92;;;18.80;99.90;;;;;;6252669;22;20027;-63
2023/08/05 09:24:25;;;;;;;3.50;1.67;;;18.80;99.90;;;;;;6227207;22;20111;-62
2023/08/05 09:26:56;;;;;;;2.42;1.50;;;18.90;99.90;;;;;;6280357;22;20395;-62
2023/08/05 09:29:22;;;;;;;4.32;2.28;;;18.90;99.90;;;;;;6251675;22;20061;-62
2023/08/05 09:31:58;;;;;;;2.88;2.00;;;18.90;99.90;;;;;;6280956;22;20361;-62
2023/08/05 09:34:38;;;;;;;2.08;1.60;;;18.90;99.90;;;;;;6279029;22;20089;-62
2023/08/05 09:37:07;;;;;;;4.03;2.05;;;19.00;99.90;;;;;;6251786;22;20020;-62
2023/08/05 09:39:48;;;;;;;7.60;1.73;;;19.10;99.90;;;;;;6228072;22;20814;-64
2023/08/05 09:42:23;;;;;;;5.75;2.20;;;19.10;99.90;;;;;;6251516;22;20034;-63
2023/08/05 09:44:58;;;;;;;2.50;1.77;;;19.10;99.90;;;;;;6203793;22;20153;-64
2023/08/05 09:47:31;;;;;;;3.08;1.60;;;19.10;99.90;;;;;;6227157;22;20019;-64
2023/08/05 09:50:03;;;;;;;4.05;2.00;;;19.20;99.90;;;;;;6252221;22;20028;-65
2023/08/05 09:52:30;;;;;;;3.15;1.67;;;19.20;99.90;;;;;;6280350;22;20020;-64
2023/08/05 09:55:03;;;;;;;2.40;1.60;;;19.20;99.90;;;;;;6279098;22;20066;-65
2023/08/05 09:57:30;;;;;;;3.67;1.65;;;19.20;99.90;;;;;;6253553;22;20089;-65
2023/08/05 09:59:59;;;;;;;2.47;1.95;;;19.20;99.90;;;;;;6279394;22;20043;-65
2023/08/05 10:02:26;;;;;;;5.07;1.95;;;19.10;99.90;;;;;;6280113;22;20067;-65
2023/08/05 10:04:53;;;;;;;5.50;2.35;;;19.20;99.90;;;;;;6280400;22;20023;-64
2023/08/05 10:07:29;;;;;;;3.20;1.92;;;19.10;99.90;;;;;;6251384;22;20020;-65
2023/08/05 10:09:55;;;;;;;4.03;1.98;;;19.10;99.90;;;;;;6280806;22;20027;-61
2023/08/05 10:12:39;;;;;;;2.78;2.05;;;19.10;99.90;;;;;;6278909;22;20595;-60
2023/08/05 10:15:06;;;;;;;2.53;2.00;;;19.10;99.90;;;;;;6252955;22;20027;-61
2023/08/05 10:17:32;;;;;;;3.70;2.65;;;19.20;99.90;;;;;;6252636;22;20956;-60
2023/08/05 10:20:00;;;;;;;4.10;2.17;;;19.40;99.90;;;;;;6251629;22;20081;-60
2023/08/05 10:22:27;;;;;;;5.07;2.60;;;19.50;99.90;;;;;;6274864;22;20501;-62
2023/08/05 10:24:57;;;;;;;2.95;2.47;;;19.60;99.90;;;;;;6249430;22;20027;-65
2023/08/05 10:27:33;;;;;;;5.95;2.55;;;19.60;99.90;;;;;;6280082;22;20516;-62
2023/08/05 10:30:06;;;;;;;3.85;2.67;;;19.60;99.90;;;;;;6277993;22;20453;-63
2023/08/05 10:32:33;;;;;;;4.45;3.08;;;19.70;99.90;;;;;;6226058;22;20023;-61
2023/08/05 10:35:30;;;;;;;4.50;2.60;;;19.60;99.90;;;;;;6279202;22;20023;-61
2023/08/05 10:38:20;;;;;;;5.68;2.38;;;19.60;99.90;;;;;;6251118;22;20372;-61
2023/08/05 10:40:52;;;;;;;5.45;1.90;;;19.80;99.90;;;;;;6259846;22;20024;-63
2023/08/05 10:43:30;;;;;;;5.10;1.95;;;19.90;99.90;;;;;;6224410;22;20082;-66
2023/08/05 10:46:06;;;;;;;4.10;2.45;;;20.20;99.90;;;;;;6250048;22;20038;-63
2023/08/05 10:48:42;;;;;;;4.88;2.88;;;20.20;99.90;;;;;;6227672;22;20074;-64
2023/08/05 10:51:17;;;;;;;7.97;2.78;;;20.10;99.90;;;;;;6251447;22;20027;-63
2023/08/05 10:53:44;;;;;;;4.68;3.55;;;20.30;99.90;;;;;;6251591;22;20027;-63
2023/08/05 10:56:14;;;;;;;4.97;2.95;;;20.20;99.90;;;;;;6279404;22;20062;-63
2023/08/05 10:58:48;;;;;;;4.30;2.75;;;20.40;99.90;;;;;;6225560;22;20062;-63
2023/08/05 11:01:14;;;;;;;4.38;3.38;;;20.40;99.90;;;;;;6227657;22;20031;-64
2023/08/05 11:03:47;;;;;;;5.25;3.80;;;20.50;99.90;;;;;;6252551;22;20026;-63
2023/08/05 11:06:15;;;;;;;5.55;3.88;;;20.50;99.90;;;;;;6281852;22;20027;-64
2023/08/05 11:08:42;;;;;;;9.98;4.65;;;20.60;99.90;;;;;;6253606;22;20024;-64
2023/08/05 11:11:13;;;;;;;9.85;5.10;;;20.60;99.90;;;;;;6253594;22;20608;-63
2023/08/05 11:13:44;;;;;;;7.18;5.15;;;20.40;99.90;;;;;;6228945;22;20031;-64
2023/08/05 11:16:17;;;;;;;6.30;4.65;;;20.20;99.90;;;;;;6279509;22;20039;-64
2023/08/05 11:18:45;;;;;;;7.50;5.25;;;20.30;99.90;;;;;;6254819;22;20036;-64
2023/08/05 11:21:13;;;;;;;8.48;5.25;;;20.30;99.90;;;;;;6253435;22;20026;-64
2023/08/05 11:23:42;;;;;;;11.23;5.55;;;20.20;99.90;;;;;;6254478;22;20047;-63
2023/08/05 11:26:09;;;;;;;8.88;5.28;;;20.40;99.90;;;;;;6254138;22;20058;-64
2023/08/05 11:28:35;;;;;;;7.03;5.43;;;20.40;99.90;;;;;;6280754;22;20062;-65
2023/08/05 11:31:02;;;;;;;8.82;5.90;;;20.50;99.90;;;;;;6229371;22;20022;-64
2023/08/05 11:33:28;;;;;;;10.55;6.72;;;20.50;99.90;;;;;;6253034;22;20039;-64
2023/08/05 11:35:54;;;;;;;8.38;6.65;;;20.60;99.90;;;;;;6254623;22;20056;-64
2023/08/05 11:38:24;;;;;;;9.50;6.75;;;20.60;99.90;;;;;;6228337;22;20098;-63
2023/08/05 11:40:53;;;;;;;12.32;7.18;;;20.50;99.90;;;;;;6254299;22;20079;-63
2023/08/05 11:43:20;;;;;;;10.38;7.20;;;20.40;99.90;;;;;;6281938;22;20562;-65
2023/08/05 11:45:51;;;;;;;15.90;7.32;;;20.40;99.90;;;;;;6253266;22;20020;-64
2023/08/05 11:48:21;;;;;;;9.75;6.85;;;20.20;99.90;;;;;;6282217;22;20019;-64
2023/08/05 11:50:48;;;;;;;10.48;7.25;;;20.20;99.90;;;;;;6280499;22;20051;-64
2023/08/05 11:53:14;;;;;;;12.40;7.82;;;20.20;99.90;;;;;;6254781;22;20481;-64
2023/08/05 11:55:42;;;;;;;11.77;9.13;;;20.20;99.90;;;;;;6281023;22;20114;-63
2023/08/05 11:58:09;;;;;;;13.93;9.65;;;20.00;99.90;;;;;;6280732;22;20035;-65
2023/08/05 12:00:35;;;;;;;12.38;9.75;;;20.00;99.90;;;;;;6281945;22;20586;-63
2023/08/05 12:03:04;;;;;;;15.05;9.98;;;19.90;99.90;;;;;;6280234;22;20046;-65
2023/08/05 12:05:29;;;;;;;16.30;11.80;;;19.80;99.90;;;;;;6254743;22;20026;-61
2023/08/05 12:07:55;;;;;;;13.05;10.57;;;19.70;99.90;;;;;;6252839;22;20349;-61
2023/08/05 12:10:21;;;;;;;13.27;10.57;;;19.70;99.90;;;;;;6254762;22;20019;-61
2023/08/05 12:12:48;;;;;;;17.13;12.02;;;19.70;99.90;;;;;;6253122;22;20023;-61
2023/08/05 12:15:18;;;;;;;14.45;10.82;;;19.70;99.90;;;;;;6253341;22;20028;-62
2023/08/05 12:17:49;;;;;;;14.45;10.60;;;19.70;99.90;;;;;;6281475;22;20055;-61
2023/08/05 12:20:17;;;;;;;13.55;10.20;;;19.80;99.90;;;;;;6253276;22;20027;-61
2023/08/05 12:22:44;;;;;;;12.45;9.82;;;19.80;99.90;;;;;;6281802;22;20033;-61
2023/08/05 12:25:09;;;;;;;13.65;9.55;;;19.80;99.90;;;;;;6279926;22;20031;-61
2023/08/05 12:27:36;;;;;;;14.05;10.57;;;19.90;99.90;;;;;;6229161;22;20054;-61
2023/08/05 12:30:03;;;;;;;14.02;10.20;;;19.90;99.90;;;;;;6253571;22;20055;-61
2023/08/05 12:32:29;;;;;;;11.95;9.52;;;20.00;99.90;;;;;;6253522;22;20033;-61
2023/08/05 12:34:55;;;;;;;12.43;9.93;;;20.20;99.90;;;;;;6281493;22;20059;-61
2023/08/05 12:37:20;;;;;;;12.20;9.50;;;20.30;99.90;;;;;;6252875;22;20016;-61
2023/08/05 12:39:46;;;;;;;13.32;8.18;;;20.30;99.90;;;;;;6228896;22;20031;-62
2023/08/05 12:42:12;;;;;;;11.77;8.73;;;20.30;99.90;;;;;;6252614;22;20024;-62
2023/08/05 12:44:37;;;;;;;10.45;8.82;;;20.30;99.90;;;;;;6281552;22;20024;-62
2023/08/05 12:47:03;;;;;;;10.02;8.27;;;20.30;99.90;;;;;;6253314;22;20024;-61